Time;durP1;ratioP1;P1;durP2;ratioP2;P2;SDS_P1;SDS_P2;PMS_P1;PMS_P2;Temp;Humidity;BMP_temperature;BMP_pressure;BME280_temperature;BME280_humidity;BME280_pressure;Samples;Min_cycle;Max_cycle;Signal;HPM_P1;HPM_P2
2022/04/26 03:37:23;;;;;;;13.02;7.57;;;;;;;;;;5028174;28;20107;-85
2022/04/26 03:39:49;;;;;;;15.57;8.02;;;;;;;;;;5014735;28;20473;-85
2022/04/26 03:42:14;;;;;;;12.02;6.78;;;;;;;;;;5010634;28;20087;-85
2022/04/26 03:44:39;;;;;;;16.77;8.07;;;;;;;;;;5010374;28;20043;-85
2022/04/26 03:47:05;;;;;;;15.05;8.32;;;;;;;;;;5027392;28;20103;-85
2022/04/26 03:49:30;;;;;;;14.43;7.82;;;;;;;;;;5029746;28;20059;-86
2022/04/26 03:51:55;;;;;;;15.98;8.02;;;;;;;;;;5031126;28;20109;-85
2022/04/26 03:54:21;;;;;;;15.93;8.02;;;;;;;;;;5026777;28;20605;-85
2022/04/26 03:56:46;;;;;;;15.82;8.40;;;;;;;;;;5009488;28;20033;-85
2022/04/26 03:59:12;;;;;;;14.57;7.25;;;;;;;;;;5007844;28;20059;-85
2022/04/26 04:01:37;;;;;;;17.08;7.60;;;;;;;;;;5024966;28;20025;-85
2022/04/26 04:04:02;;;;;;;11.52;7.65;;;;;;;;;;5016924;28;20025;-85
2022/04/26 04:06:28;;;;;;;13.35;7.63;;;;;;;;;;5009837;28;20029;-87
2022/04/26 04:08:53;;;;;;;14.38;7.60;;;;;;;;;;5020241;28;20024;-85
2022/04/26 04:11:18;;;;;;;14.68;8.10;;;;;;;;;;5011584;28;20369;-85
2022/04/26 04:13:43;;;;;;;14.20;7.88;;;;;;;;;;5028206;28;20204;-86
2022/04/26 04:16:08;;;;;;;16.40;8.38;;;;;;;;;;5023275;28;20083;-85
2022/04/26 04:21:17;;;;;;;14.93;9.15;;;;;;;;;;5027869;28;20064;-86
2022/04/26 04:23:43;;;;;;;17.27;10.23;;;;;;;;;;5009149;28;20017;-85
2022/04/26 04:26:08;;;;;;;15.02;9.68;;;;;;;;;;5009673;28;20032;-85
2022/04/26 04:28:34;;;;;;;16.42;9.48;;;;;;;;;;5011148;28;20028;-86
2022/04/26 04:30:59;;;;;;;17.30;9.63;;;;;;;;;;5025118;28;20017;-86
2022/04/26 04:33:25;;;;;;;16.27;10.25;;;;;;;;;;5029272;28;20079;-86
2022/04/26 04:35:50;;;;;;;16.73;9.32;;;;;;;;;;5009224;28;20045;-83
2022/04/26 04:38:15;;;;;;;17.30;9.73;;;;;;;;;;5025963;28;20025;-84
2022/04/26 04:40:40;;;;;;;19.08;7.75;;;;;;;;;;5021612;28;20055;-86
2022/04/26 04:43:05;;;;;;;13.60;7.28;;;;;;;;;;5027371;28;20026;-85
2022/04/26 04:45:31;;;;;;;16.73;9.13;;;;;;;;;;5024642;28;20025;-86
2022/04/26 04:47:56;;;;;;;15.57;9.60;;;;;;;;;;5036380;28;20018;-84
2022/04/26 04:50:21;;;;;;;17.48;9.75;;;;;;;;;;5009470;28;20032;-86
2022/04/26 04:52:47;;;;;;;18.98;10.45;;;;;;;;;;5028794;28;20028;-85
2022/04/26 04:55:13;;;;;;;20.75;10.70;;;;;;;;;;5009207;28;20512;-85
2022/04/26 04:57:38;;;;;;;17.25;9.82;;;;;;;;;;5004794;28;20029;-85
2022/04/26 05:00:03;;;;;;;18.63;10.68;;;;;;;;;;5021167;28;20550;-85
2022/04/26 05:02:29;;;;;;;19.75;11.23;;;;;;;;;;5006740;28;20036;-84
2022/04/26 05:04:54;;;;;;;22.08;10.98;;;;;;;;;;5028137;28;20076;-85
2022/04/26 05:07:19;;;;;;;19.67;12.03;;;;;;;;;;5022551;28;20495;-86
2022/04/26 05:09:44;;;;;;;25.05;12.23;;;;;;;;;;5010226;28;20272;-85
2022/04/26 05:12:10;;;;;;;22.48;12.40;;;;;;;;;;5012032;28;20052;-86
2022/04/26 05:14:35;;;;;;;26.58;13.77;;;;;;;;;;5016444;28;20108;-86
2022/04/26 05:17:00;;;;;;;25.70;12.65;;;;;;;;;;5015347;28;20048;-85
2022/04/26 05:19:25;;;;;;;28.05;13.57;;;;;;;;;;5009269;28;20030;-85
2022/04/26 05:21:51;;;;;;;23.88;14.48;;;;;;;;;;5025701;28;20025;-85
2022/04/26 05:27:00;;;;;;;28.25;13.32;;;;;;;;;;5031700;28;20024;-84
2022/04/26 05:29:26;;;;;;;27.13;13.85;;;;;;;;;;5036521;28;20021;-86
2022/04/26 05:31:51;;;;;;;27.35;13.52;;;;;;;;;;5013642;28;20110;-85
2022/04/26 05:34:16;;;;;;;28.80;13.18;;;;;;;;;;5008262;28;20465;-86
2022/04/26 05:36:41;;;;;;;22.60;13.20;;;;;;;;;;5025995;28;20044;-86
2022/04/26 05:39:06;;;;;;;23.55;13.45;;;;;;;;;;5009206;28;20033;-87
2022/04/26 05:41:32;;;;;;;26.80;13.02;;;;;;;;;;5017367;28;20043;-86
2022/04/26 05:43:57;;;;;;;23.83;13.02;;;;;;;;;;5009619;28;20111;-87
2022/04/26 05:46:22;;;;;;;27.33;14.55;;;;;;;;;;5014142;28;20033;-86
2022/04/26 05:48:47;;;;;;;25.50;13.60;;;;;;;;;;5029949;28;20018;-86
2022/04/26 05:51:13;;;;;;;27.58;15.80;;;;;;;;;;5009162;28;20389;-87
2022/04/26 05:53:38;;;;;;;40.90;17.30;;;;;;;;;;5025035;28;20446;-86
2022/04/26 05:56:05;;;;;;;39.33;17.57;;;;;;;;;;5027021;28;20021;-86
2022/04/26 05:58:30;;;;;;;33.35;17.40;;;;;;;;;;5027679;28;20347;-86
2022/04/26 06:00:55;;;;;;;40.97;19.02;;;;;;;;;;5006523;28;20030;-85
2022/04/26 06:03:21;;;;;;;43.30;18.57;;;;;;;;;;5020367;28;20287;-86
2022/04/26 06:05:46;;;;;;;40.35;18.65;;;;;;;;;;5033228;28;20243;-85
2022/04/26 06:08:11;;;;;;;41.33;18.85;;;;;;;;;;5026113;28;20321;-86
2022/04/26 06:10:37;;;;;;;47.92;22.60;;;;;;;;;;5025725;28;20376;-86
2022/04/26 06:13:02;;;;;;;48.78;21.77;;;;;;;;;;5023658;28;20026;-86
2022/04/26 06:15:27;;;;;;;54.88;24.20;;;;;;;;;;5021814;28;20056;-87
2022/04/26 06:17:53;;;;;;;60.38;25.23;;;;;;;;;;5031378;28;20381;-87
2022/04/26 06:20:20;;;;;;;68.68;27.75;;;;;;;;;;5038453;28;20100;-86
2022/04/26 06:22:45;;;;;;;65.03;28.45;;;;;;;;;;5017417;28;20171;-86
2022/04/26 06:25:10;;;;;;;69.10;29.15;;;;;;;;;;5011337;28;20089;-85
2022/04/26 06:27:36;;;;;;;74.53;30.17;;;;;;;;;;5029322;28;20105;-87
2022/04/26 06:30:01;;;;;;;74.80;31.63;;;;;;;;;;5028978;28;21316;-87
2022/04/26 06:32:26;;;;;;;88.32;34.65;;;;;;;;;;5016719;28;20025;-87
2022/04/26 06:34:51;;;;;;;79.35;34.65;;;;;;;;;;5030626;28;20101;-87
2022/04/26 06:37:17;;;;;;;97.50;39.38;;;;;;;;;;5031587;28;20018;-86
2022/04/26 06:39:42;;;;;;;89.32;38.30;;;;;;;;;;5031400;28;20071;-87
2022/04/26 06:42:07;;;;;;;95.65;40.67;;;;;;;;;;5038978;28;20021;-86
2022/04/26 06:44:32;;;;;;;99.60;39.22;;;;;;;;;;5012625;28;20033;-86
2022/04/26 06:46:58;;;;;;;109.47;41.53;;;;;;;;;;5026308;28;20025;-86
2022/04/26 06:49:23;;;;;;;103.63;42.75;;;;;;;;;;5013190;28;20025;-86
2022/04/26 06:51:48;;;;;;;114.63;43.97;;;;;;;;;;5030694;28;20355;-86
2022/04/26 06:54:13;;;;;;;97.40;43.90;;;;;;;;;;5014706;28;20025;-86
2022/04/26 06:56:43;;;;;;;99.20;40.33;;;;;;;;;;5032076;28;20025;-86
2022/04/26 06:59:08;;;;;;;108.30;43.13;;;;;;;;;;5033084;28;20018;-84
2022/04/26 07:01:33;;;;;;;101.88;42.33;;;;;;;;;;5020118;28;20139;-86
2022/04/26 07:03:58;;;;;;;109.07;43.63;;;;;;;;;;5006439;28;20412;-84
2022/04/26 07:06:24;;;;;;;101.90;43.33;;;;;;;;;;5035315;28;20509;-84
2022/04/26 07:08:49;;;;;;;105.47;41.40;;;;;;;;;;5007625;28;20068;-82
2022/04/26 07:11:15;;;;;;;95.05;41.22;;;;;;;;;;5023433;28;20345;-84
2022/04/26 07:13:40;;;;;;;99.38;41.63;;;;;;;;;;5029180;28;20040;-85
2022/04/26 07:16:06;;;;;;;105.07;43.28;;;;;;;;;;5027931;28;20036;-85
2022/04/26 07:18:32;;;;;;;100.85;40.40;;;;;;;;;;5016694;28;20434;-85
2022/04/26 07:20:57;;;;;;;104.78;41.15;;;;;;;;;;5026860;28;20436;-84
2022/04/26 07:23:22;;;;;;;105.75;42.60;;;;;;;;;;5023619;28;20029;-83
2022/04/26 07:25:47;;;;;;;101.50;39.53;;;;;;;;;;5030489;28;20057;-84
2022/04/26 07:28:12;;;;;;;100.35;38.42;;;;;;;;;;5036317;28;20402;-83
2022/04/26 07:30:39;;;;;;;97.50;39.13;;;;;;;;;;5042719;28;20017;-85
2022/04/26 07:35:48;;;;;;;92.30;37.05;;;;;;;;;;5048254;28;20084;-83
2022/04/26 07:38:14;;;;;;;86.88;33.60;;;;;;;;;;5043319;28;20025;-84
2022/04/26 07:40:39;;;;;;;78.78;32.92;;;;;;;;;;5045285;28;20813;-84
2022/04/26 07:43:05;;;;;;;90.97;34.40;;;;;;;;;;5014295;28;20021;-83
2022/04/26 07:45:30;;;;;;;82.20;34.80;;;;;;;;;;5043809;28;20013;-85
2022/04/26 07:47:56;;;;;;;83.38;34.60;;;;;;;;;;5052503;28;20021;-85
2022/04/26 07:50:21;;;;;;;73.28;32.58;;;;;;;;;;5009571;28;20041;-85
2022/04/26 07:52:46;;;;;;;88.00;35.88;;;;;;;;;;5008834;28;20032;-85
2022/04/26 07:55:12;;;;;;;75.25;32.85;;;;;;;;;;5029800;28;20507;-86
2022/04/26 07:57:39;;;;;;;74.30;32.25;;;;;;;;;;5015239;28;20029;-86
2022/04/26 08:00:04;;;;;;;77.00;31.85;;;;;;;;;;5033507;28;20017;-86
2022/04/26 08:02:29;;;;;;;74.30;31.58;;;;;;;;;;5007950;28;20078;-86
2022/04/26 08:05:00;;;;;;;66.90;30.23;;;;;;;;;;5014999;28;20017;-85
2022/04/26 08:07:25;;;;;;;76.55;31.33;;;;;;;;;;5010693;28;20283;-85
2022/04/26 08:09:50;;;;;;;72.28;30.50;;;;;;;;;;5026615;28;20132;-85
2022/04/26 08:12:16;;;;;;;77.70;30.17;;;;;;;;;;5024521;28;20029;-84
2022/04/26 08:14:41;;;;;;;59.35;28.20;;;;;;;;;;5007501;28;20013;-85
2022/04/26 08:17:06;;;;;;;63.58;30.20;;;;;;;;;;5026043;28;20608;-84
2022/04/26 08:19:32;;;;;;;61.42;28.77;;;;;;;;;;5023977;28;20032;-85
2022/04/26 08:21:58;;;;;;;68.32;31.13;;;;;;;;;;5026807;28;20388;-85
2022/04/26 08:27:22;;;;;;;57.78;28.40;;;;;;;;;;5024117;28;20028;-84
2022/04/26 08:29:47;;;;;;;;;;;;;;;;;;5028624;28;20028;-84
2022/04/26 08:32:13;;;;;;;61.05;28.00;;;;;;;;;;5032201;28;19913;-84
2022/04/26 08:34:38;;;;;;;59.97;27.70;;;;;;;;;;5015096;28;20104;-84
2022/04/26 08:37:04;;;;;;;63.53;27.83;;;;;;;;;;5030695;28;20112;-83
2022/04/26 08:39:29;;;;;;;60.80;28.17;;;;;;;;;;5010186;28;20025;-83
2022/04/26 08:42:02;;;;;;;63.53;29.95;;;;;;;;;;5014859;28;20552;-84
2022/04/26 08:44:27;;;;;;;60.88;31.23;;;;;;;;;;5025481;28;20109;-83
2022/04/26 08:52:21;;;;;;;54.90;27.52;;;;;;;;;;5025429;28;20036;-85
2022/04/26 08:54:46;;;;;;;66.80;30.02;;;;;;;;;;5022108;28;20222;-84
2022/04/26 08:57:13;;;;;;;71.28;29.80;;;;;;;;;;5025611;28;20029;-83
2022/04/26 08:59:45;;;;;;;62.65;30.10;;;;;;;;;;5026169;28;20040;-83
2022/04/26 09:02:19;;;;;;;62.83;28.67;;;;;;;;;;5006471;28;20020;-83
2022/04/26 09:04:44;;;;;;;65.93;27.50;;;;;;;;;;5013460;28;20028;-83
2022/04/26 09:07:11;;;;;;;68.63;29.70;;;;;;;;;;5006452;28;20432;-84
2022/04/26 09:09:40;;;;;;;54.78;26.67;;;;;;;;;;5024782;28;20465;-83
2022/04/26 09:12:09;;;;;;;55.25;27.48;;;;;;;;;;5026197;28;20025;-82
2022/04/26 09:14:35;;;;;;;62.22;28.75;;;;;;;;;;5019813;28;20013;-82
2022/04/26 09:17:04;;;;;;;64.28;29.27;;;;;;;;;;5021766;28;20502;-82
2022/04/26 09:19:48;;;;;;;59.42;27.00;;;;;;;;;;5023864;28;20043;-83
2022/04/26 09:22:21;;;;;;;61.72;27.50;;;;;;;;;;5022209;28;20037;-83
2022/04/26 09:24:53;;;;;;;58.33;27.05;;;;;;;;;;5029606;28;20024;-83
2022/04/26 09:27:18;;;;;;;56.30;26.67;;;;;;;;;;5023556;28;20213;-83
2022/04/26 09:29:47;;;;;;;59.15;27.17;;;;;;;;;;5021068;28;20180;-85
2022/04/26 09:32:12;;;;;;;57.78;26.70;;;;;;;;;;5024853;28;20025;-83
2022/04/26 09:34:40;;;;;;;57.63;27.25;;;;;;;;;;5026069;28;20369;-84
2022/04/26 09:37:06;;;;;;;55.63;27.17;;;;;;;;;;5023749;28;20029;-83
2022/04/26 09:39:31;;;;;;;61.15;28.65;;;;;;;;;;5046641;28;20033;-84
2022/04/26 09:41:57;;;;;;;62.78;29.65;;;;;;;;;;5028482;28;20009;-85
2022/04/26 09:44:32;;;;;;;59.72;28.10;;;;;;;;;;5038002;28;20053;-83
2022/04/26 09:46:57;;;;;;;56.13;28.00;;;;;;;;;;5048252;28;20014;-83
2022/04/26 09:49:24;;;;;;;60.83;28.27;;;;;;;;;;5050816;28;20044;-83
2022/04/26 09:51:59;;;;;;;55.83;27.27;;;;;;;;;;5048274;28;20018;-84
2022/04/26 09:54:24;;;;;;;57.20;27.63;;;;;;;;;;5042729;28;20009;-83
2022/04/26 09:56:50;;;;;;;69.50;31.25;;;;;;;;;;5046357;28;20048;-85
2022/04/26 09:59:26;;;;;;;60.72;31.00;;;;;;;;;;5009648;28;20177;-88
2022/04/26 10:01:53;;;;;;;71.43;33.22;;;;;;;;;;5013379;28;20026;-85
2022/04/26 10:04:21;;;;;;;71.65;32.95;;;;;;;;;;5005286;28;20029;-86
2022/04/26 10:06:49;;;;;;;71.80;33.45;;;;;;;;;;5019506;28;20017;-85
2022/04/26 10:09:15;;;;;;;72.38;34.88;;;;;;;;;;5029732;28;20099;-85
2022/04/26 10:11:40;;;;;;;72.00;36.45;;;;;;;;;;5020892;28;20043;-85
2022/04/26 10:14:06;;;;;;;70.03;37.65;;;;;;;;;;5023397;28;20481;-85
2022/04/26 10:16:32;;;;;;;75.57;37.65;;;;;;;;;;5013272;28;20022;-86
2022/04/26 10:19:01;;;;;;;79.28;39.72;;;;;;;;;;4993953;28;20044;-86
2022/04/26 10:21:26;;;;;;;80.30;39.65;;;;;;;;;;5026200;28;20523;-86
2022/04/26 10:23:51;;;;;;;82.10;38.87;;;;;;;;;;5008111;28;20056;-86
2022/04/26 10:26:23;;;;;;;81.25;41.25;;;;;;;;;;5001332;28;20303;-87
2022/04/26 10:28:55;;;;;;;83.00;41.50;;;;;;;;;;5015355;28;20105;-86
2022/04/26 10:31:49;;;;;;;86.07;41.63;;;;;;;;;;5006624;28;20017;-85
2022/04/26 10:34:16;;;;;;;93.05;40.45;;;;;;;;;;4991280;28;20060;-87
2022/04/26 10:36:41;;;;;;;81.13;40.60;;;;;;;;;;5009267;28;20053;-87
2022/04/26 10:39:07;;;;;;;76.68;39.83;;;;;;;;;;5025609;28;20060;-87
2022/04/26 10:41:39;;;;;;;79.03;40.00;;;;;;;;;;5011609;28;20025;-86
2022/04/26 10:44:16;;;;;;;77.50;38.53;;;;;;;;;;5023639;28;20533;-86
2022/04/26 10:46:55;;;;;;;72.40;37.67;;;;;;;;;;5017197;28;20116;-86
2022/04/26 10:49:22;;;;;;;68.68;36.00;;;;;;;;;;5015936;28;20109;-87
2022/04/26 10:51:48;;;;;;;74.93;38.75;;;;;;;;;;5021887;28;20024;-85
2022/04/26 10:54:13;;;;;;;76.15;36.80;;;;;;;;;;5041637;28;20013;-85
2022/04/26 10:56:38;;;;;;;66.67;35.73;;;;;;;;;;5024264;28;20044;-85
2022/04/26 10:59:13;;;;;;;76.88;37.17;;;;;;;;;;5022605;28;20264;-83
2022/04/26 11:01:38;;;;;;;70.32;36.55;;;;;;;;;;5024828;28;20036;-83
2022/04/26 11:04:05;;;;;;;63.38;34.38;;;;;;;;;;5028414;28;20029;-83
2022/04/26 11:06:41;;;;;;;65.13;33.10;;;;;;;;;;5020231;28;20031;-85
2022/04/26 11:09:14;;;;;;;50.88;28.63;;;;;;;;;;5032025;28;20013;-84
2022/04/26 11:11:49;;;;;;;51.15;29.80;;;;;;;;;;5021559;28;20100;-84
2022/04/26 11:14:17;;;;;;;49.40;28.75;;;;;;;;;;5028326;28;20026;-84
2022/04/26 11:17:02;;;;;;;52.60;29.75;;;;;;;;;;5019459;28;20030;-84
2022/04/26 11:19:28;;;;;;;48.53;29.52;;;;;;;;;;5031616;28;20657;-84
2022/04/26 11:21:54;;;;;;;49.25;28.33;;;;;;;;;;5018773;28;20028;-84
2022/04/26 11:29:53;;;;;;;40.88;26.13;;;;;;;;;;5030936;28;20032;-84
2022/04/26 11:32:30;;;;;;;42.78;25.75;;;;;;;;;;5020196;28;20021;-84
2022/04/26 11:34:56;;;;;;;40.25;25.67;;;;;;;;;;5019001;28;20109;-82
2022/04/26 11:37:21;;;;;;;44.00;22.50;;;;;;;;;;5035446;28;20215;-84
2022/04/26 11:39:46;;;;;;;44.10;23.77;;;;;;;;;;5029806;28;20483;-87
2022/04/26 11:42:12;;;;;;;41.35;23.65;;;;;;;;;;5030769;28;20290;-84
2022/04/26 11:44:55;;;;;;;38.45;23.23;;;;;;;;;;5028217;28;20096;-83
2022/04/26 11:47:20;;;;;;;39.55;23.30;;;;;;;;;;5007822;28;20021;-84
2022/04/26 11:49:45;;;;;;;35.17;20.73;;;;;;;;;;5007000;28;20031;-85
2022/04/26 11:52:10;;;;;;;34.60;22.03;;;;;;;;;;5020421;28;20617;-85
2022/04/26 11:54:36;;;;;;;41.17;23.75;;;;;;;;;;5017345;28;20295;-82
2022/04/26 11:57:02;;;;;;;47.30;29.70;;;;;;;;;;5025302;28;20025;-86
2022/04/26 11:59:28;;;;;;;49.85;30.85;;;;;;;;;;5024268;28;20452;-83
2022/04/26 12:01:53;;;;;;;46.35;29.13;;;;;;;;;;5023887;28;20029;-83
2022/04/26 12:04:19;;;;;;;43.13;28.20;;;;;;;;;;5013725;28;20108;-85
2022/04/26 12:06:44;;;;;;;42.22;26.90;;;;;;;;;;5029528;28;20210;-82
2022/04/26 12:09:12;;;;;;;40.90;25.35;;;;;;;;;;5031312;28;20020;-83
2022/04/26 12:11:38;;;;;;;34.72;23.05;;;;;;;;;;5050105;28;20025;-83
2022/04/26 12:14:14;;;;;;;37.10;22.75;;;;;;;;;;5013927;28;20014;-83
2022/04/26 12:16:47;;;;;;;39.78;23.08;;;;;;;;;;5009208;28;23005;-83
2022/04/26 12:19:12;;;;;;;28.80;19.40;;;;;;;;;;5022958;28;20069;-83
2022/04/26 12:21:56;;;;;;;36.08;20.95;;;;;;;;;;5022165;28;20025;-85
2022/04/26 12:24:22;;;;;;;32.97;20.60;;;;;;;;;;5011844;28;20761;-84
2022/04/26 12:26:58;;;;;;;29.92;18.92;;;;;;;;;;5028051;28;20110;-85
2022/04/26 12:29:24;;;;;;;37.47;18.80;;;;;;;;;;5004675;28;20025;-84
2022/04/26 12:31:50;;;;;;;28.60;19.02;;;;;;;;;;5027932;28;20036;-83
2022/04/26 12:34:16;;;;;;;28.33;18.67;;;;;;;;;;5013420;28;20029;-83
2022/04/26 12:36:55;;;;;;;31.58;18.63;;;;;;;;;;5013631;28;20481;-84
2022/04/26 12:39:21;;;;;;;29.67;18.02;;;;;;;;;;5021816;28;20282;-82
2022/04/26 12:41:48;;;;;;;27.85;18.27;;;;;;;;;;5024460;28;20029;-84
2022/04/26 12:44:13;;;;;;;29.13;17.83;;;;;;;;;;5017790;28;20036;-84
2022/04/26 12:50:27;;;;;;;27.07;16.27;;;;;;;;;;5007093;28;20971;-84
2022/04/26 12:52:34;;;;;;;27.65;15.95;;;;;;;;;;4992825;28;20025;-84
2022/04/26 12:54:59;;;;;;;26.17;16.85;;;;;;;;;;5021865;28;20542;-84
2022/04/26 12:57:25;;;;;;;25.38;15.05;;;;;;;;;;5025111;28;20029;-84
2022/04/26 12:59:50;;;;;;;22.87;13.73;;;;;;;;;;5020121;28;20051;-83
2022/04/26 13:02:16;;;;;;;25.43;15.17;;;;;;;;;;5018273;28;20292;-82
2022/04/26 13:04:41;;;;;;;24.15;15.02;;;;;;;;;;5018846;28;20880;-85
2022/04/26 13:07:06;;;;;;;37.93;17.70;;;;;;;;;;5008006;28;20037;-83
2022/04/26 13:09:31;;;;;;;24.40;16.60;;;;;;;;;;5002377;28;20499;-84
2022/04/26 13:11:58;;;;;;;30.90;15.45;;;;;;;;;;5025984;28;20049;-83
2022/04/26 13:14:23;;;;;;;25.55;15.55;;;;;;;;;;5022428;28;20041;-84
2022/04/26 13:16:49;;;;;;;21.90;14.68;;;;;;;;;;5018858;28;20118;-83
2022/04/26 13:19:15;;;;;;;26.50;14.57;;;;;;;;;;5010012;28;20033;-84
2022/04/26 13:21:40;;;;;;;26.47;15.50;;;;;;;;;;5026068;28;20112;-83
2022/04/26 13:24:05;;;;;;;26.07;16.03;;;;;;;;;;5023508;28;20307;-84
2022/04/26 13:26:33;;;;;;;27.33;16.33;;;;;;;;;;5021332;28;20756;-83
2022/04/26 13:28:58;;;;;;;26.30;14.95;;;;;;;;;;5017471;28;20060;-83
2022/04/26 13:31:23;;;;;;;22.20;14.75;;;;;;;;;;5016192;28;20421;-82
2022/04/26 13:33:49;;;;;;;24.33;15.27;;;;;;;;;;5025390;28;20983;-83
2022/04/26 13:36:14;;;;;;;26.73;15.32;;;;;;;;;;5027271;28;20325;-84
2022/04/26 13:38:40;;;;;;;32.47;16.23;;;;;;;;;;5021667;28;20470;-83
2022/04/26 13:41:06;;;;;;;28.27;16.53;;;;;;;;;;5024911;28;20037;-84
2022/04/26 13:43:31;;;;;;;25.52;17.30;;;;;;;;;;5021746;28;20275;-84
2022/04/26 13:45:56;;;;;;;30.90;18.35;;;;;;;;;;5023410;28;20079;-84
2022/04/26 13:48:22;;;;;;;29.40;18.10;;;;;;;;;;5020129;28;20021;-86
2022/04/26 13:50:47;;;;;;;27.10;17.20;;;;;;;;;;5013579;28;20670;-86
2022/04/26 13:53:12;;;;;;;27.33;17.80;;;;;;;;;;5007128;28;20340;-83
2022/04/26 13:55:38;;;;;;;18.30;10.67;;;;;;;;;;5020445;28;20013;-84
2022/04/26 13:58:05;;;;;;;11.73;4.75;;;;;;;;;;5022768;28;20367;-85
2022/04/26 14:00:34;;;;;;;7.50;5.45;;;;;;;;;;5016922;28;20150;-84
2022/04/26 14:02:59;;;;;;;8.38;5.13;;;;;;;;;;5016144;28;20017;-84
2022/04/26 14:05:25;;;;;;;6.43;4.78;;;;;;;;;;5016577;28;20086;-83
2022/04/26 14:07:50;;;;;;;6.20;2.95;;;;;;;;;;5008090;28;20056;-84
2022/04/26 14:10:16;;;;;;;7.28;3.83;;;;;;;;;;5010040;28;20049;-83
2022/04/26 14:12:41;;;;;;;2.70;1.48;;;;;;;;;;5033686;28;20061;-84
2022/04/26 14:23:18;;;;;;;5.63;2.03;;;;;;;;;;5022111;28;20482;-84
2022/04/26 14:25:44;;;;;;;2.93;2.53;;;;;;;;;;5008942;28;20053;-83
2022/04/26 14:28:09;;;;;;;8.00;2.72;;;;;;;;;;4998416;28;20276;-86
2022/04/26 14:30:34;;;;;;;8.32;4.22;;;;;;;;;;5030759;28;20523;-85
2022/04/26 14:33:00;;;;;;;9.35;3.70;;;;;;;;;;5014025;28;20040;-87
2022/04/26 14:35:27;;;;;;;6.15;3.60;;;;;;;;;;5012250;28;20393;-85
2022/04/26 14:37:53;;;;;;;11.40;5.28;;;;;;;;;;5008959;28;20013;-83
2022/04/26 14:40:18;;;;;;;11.57;5.93;;;;;;;;;;5024764;28;20017;-85
2022/04/26 14:42:46;;;;;;;7.95;3.80;;;;;;;;;;5028495;28;20119;-86
2022/04/26 14:45:12;;;;;;;11.85;5.55;;;;;;;;;;5018875;28;20017;-83
2022/04/26 14:47:37;;;;;;;13.02;6.80;;;;;;;;;;5028701;28;20028;-86
2022/04/26 14:50:04;;;;;;;16.70;7.93;;;;;;;;;;5008338;28;20118;-83
2022/04/26 14:52:30;;;;;;;17.20;8.50;;;;;;;;;;5021781;28;20276;-85
2022/04/26 14:54:57;;;;;;;9.85;5.38;;;;;;;;;;5009551;28;20018;-86
2022/04/26 14:57:22;;;;;;;12.82;5.32;;;;;;;;;;5027407;28;20040;-87
2022/04/26 14:59:48;;;;;;;12.88;6.00;;;;;;;;;;5025670;28;20033;-85
2022/04/26 15:02:14;;;;;;;18.15;6.97;;;;;;;;;;5013742;28;20465;-84
2022/04/26 15:04:40;;;;;;;15.40;7.35;;;;;;;;;;5028000;28;20053;-86
2022/04/26 15:07:05;;;;;;;11.45;7.18;;;;;;;;;;5031271;28;20156;-86
2022/04/26 15:09:42;;;;;;;21.10;7.25;;;;;;;;;;5032680;28;20025;-86
2022/04/26 15:17:36;;;;;;;11.60;5.63;;;;;;;;;;5027107;28;20067;-85
2022/04/26 15:20:03;;;;;;;13.20;7.17;;;;;;;;;;5007045;28;20583;-84
2022/04/26 15:22:28;;;;;;;13.02;7.68;;;;;;;;;;5003006;28;20311;-86
2022/04/26 15:24:54;;;;;;;15.82;7.32;;;;;;;;;;5026750;28;20021;-86
2022/04/26 15:27:20;;;;;;;17.02;8.82;;;;;;;;;;5026199;28;20044;-85
2022/04/26 15:29:46;;;;;;;15.35;7.65;;;;;;;;;;5033521;28;20021;-86
2022/04/26 15:32:11;;;;;;;15.65;7.88;;;;;;;;;;5020893;28;20029;-84
2022/04/26 15:34:37;;;;;;;22.15;9.20;;;;;;;;;;5032619;28;20017;-84
2022/04/26 15:37:02;;;;;;;17.88;10.18;;;;;;;;;;5037920;28;20020;-85
2022/04/26 15:39:28;;;;;;;19.40;11.02;;;;;;;;;;5015255;28;20022;-84
2022/04/26 15:41:53;;;;;;;19.63;10.50;;;;;;;;;;5023894;28;20021;-84
2022/04/26 15:44:19;;;;;;;20.08;11.70;;;;;;;;;;5037820;28;20405;-85
2022/04/26 15:46:44;;;;;;;18.33;10.13;;;;;;;;;;5023527;28;20116;-85
2022/04/26 15:49:10;;;;;;;19.40;10.32;;;;;;;;;;5023716;28;20293;-84
2022/04/26 15:51:35;;;;;;;17.40;10.15;;;;;;;;;;5022056;28;20104;-83
2022/04/26 15:54:02;;;;;;;16.60;9.38;;;;;;;;;;5014534;28;20018;-84
2022/04/26 15:56:27;;;;;;;20.13;10.75;;;;;;;;;;5021412;28;20091;-82
2022/04/26 15:58:52;;;;;;;24.40;10.32;;;;;;;;;;5020278;28;20057;-83
2022/04/26 16:01:18;;;;;;;18.33;11.33;;;;;;;;;;5021776;28;20108;-83
2022/04/26 16:03:43;;;;;;;22.17;11.02;;;;;;;;;;5016106;28;20617;-83
2022/04/26 16:06:10;;;;;;;20.75;11.65;;;;;;;;;;5029261;28;20472;-85
2022/04/26 16:08:36;;;;;;;18.33;10.65;;;;;;;;;;5026982;28;20021;-84
2022/04/26 16:22:00;;;;;;;21.63;12.13;;;;;;;;;;5026252;28;20158;-85
2022/04/26 16:24:25;;;;;;;24.55;10.95;;;;;;;;;;5022167;28;20014;-85
2022/04/26 16:26:50;;;;;;;16.80;9.73;;;;;;;;;;5012317;28;20539;-82
2022/04/26 16:29:15;;;;;;;19.38;10.30;;;;;;;;;;5034138;28;20297;-85
2022/04/26 16:31:41;;;;;;;20.95;12.15;;;;;;;;;;5032072;28;20025;-83
2022/04/26 16:34:06;;;;;;;25.57;14.63;;;;;;;;;;5013234;28;20098;-84
2022/04/26 16:36:32;;;;;;;20.00;11.13;;;;;;;;;;5012430;28;20268;-84
2022/04/26 16:38:58;;;;;;;23.30;12.25;;;;;;;;;;5030974;28;20585;-86
2022/04/26 16:41:23;;;;;;;25.15;11.85;;;;;;;;;;5012597;28;20028;-85
2022/04/26 16:43:49;;;;;;;26.00;12.73;;;;;;;;;;5023983;28;20477;-86
2022/04/26 16:46:19;;;;;;;24.02;12.82;;;;;;;;;;5021882;28;20116;-85
2022/04/26 16:48:47;;;;;;;21.88;13.27;;;;;;;;;;5012706;28;20033;-83
2022/04/26 16:51:14;;;;;;;24.98;12.65;;;;;;;;;;5017824;28;20023;-84
2022/04/26 16:53:40;;;;;;;24.02;13.77;;;;;;;;;;5017429;28;20038;-83
2022/04/26 16:56:05;;;;;;;25.27;13.63;;;;;;;;;;5014926;23;20943;-64
2022/04/26 16:58:30;;;;;;;27.00;14.15;;;;;;;;;;5003455;28;20022;-66
2022/04/26 17:00:56;;;;;;;19.80;12.10;;;;;;;;;;5003914;28;20025;-65
2022/04/26 17:03:22;;;;;;;26.13;13.80;;;;;;;;;;5021074;28;20022;-65
2022/04/26 17:05:47;;;;;;;20.48;12.50;;;;;;;;;;5020034;28;20013;-65
2022/04/26 17:08:17;;;;;;;23.27;13.55;;;;;;;;;;5018195;28;20508;-64
2022/04/26 17:10:42;;;;;;;20.00;13.10;;;;;;;;;;5023154;28;20014;-64
2022/04/26 17:13:07;;;;;;;27.52;13.82;;;;;;;;;;5013927;28;20022;-64
2022/04/26 17:15:33;;;;;;;20.92;12.63;;;;;;;;;;5021894;28;20024;-64
2022/04/26 17:17:58;;;;;;;23.27;14.03;;;;;;;;;;5013594;28;20022;-65
2022/04/26 17:20:23;;;;;;;24.77;13.85;;;;;;;;;;5007300;28;20319;-65
2022/04/26 17:22:48;;;;;;;26.38;14.32;;;;;;;;;;5013264;28;20045;-65
2022/04/26 17:25:13;;;;;;;22.63;14.27;;;;;;;;;;5020515;28;20024;-65
2022/04/26 17:27:39;;;;;;;24.92;14.80;;;;;;;;;;5014911;28;20316;-64
2022/04/26 17:30:05;;;;;;;27.05;15.98;;;;;;;;;;5015396;28;20462;-65
2022/04/26 17:32:30;;;;;;;26.63;15.63;;;;;;;;;;5011230;28;20029;-65
2022/04/26 17:34:56;;;;;;;27.50;15.50;;;;;;;;;;5002673;28;20029;-65
2022/04/26 17:37:24;;;;;;;30.73;17.23;;;;;;;;;;5008381;28;20275;-65
2022/04/26 17:39:49;;;;;;;28.73;15.65;;;;;;;;;;5012424;28;20059;-65
2022/04/26 17:42:15;;;;;;;32.42;17.63;;;;;;;;;;5022405;28;20229;-65
2022/04/26 17:44:41;;;;;;;24.92;15.55;;;;;;;;;;5015043;28;20383;-65
2022/04/26 17:47:06;;;;;;;29.10;17.80;;;;;;;;;;5021405;28;20017;-64
2022/04/26 17:49:32;;;;;;;32.55;19.23;;;;;;;;;;5016854;28;20072;-65
2022/04/26 17:51:57;;;;;;;30.73;18.02;;;;;;;;;;5019992;28;20478;-65
2022/04/26 17:57:06;;;;;;;36.22;19.08;;;;;;;;;;5013727;28;20037;-65
2022/04/26 17:59:31;;;;;;;35.55;18.88;;;;;;;;;;5018305;28;20072;-65
2022/04/26 18:01:56;;;;;;;34.33;18.93;;;;;;;;;;5012342;28;20067;-64
2022/04/26 18:04:21;;;;;;;29.08;18.77;;;;;;;;;;5014525;28;20272;-65
2022/04/26 18:06:47;;;;;;;28.13;18.67;;;;;;;;;;5016406;28;20049;-65
2022/04/26 18:09:12;;;;;;;30.77;18.87;;;;;;;;;;5020776;28;20330;-65
2022/04/26 18:11:37;;;;;;;34.40;18.92;;;;;;;;;;5005363;28;20305;-64
2022/04/26 18:14:02;;;;;;;42.38;17.33;;;;;;;;;;5025285;28;20017;-65
2022/04/26 18:16:28;;;;;;;31.83;17.88;;;;;;;;;;5019688;28;20026;-65
2022/04/26 18:18:54;;;;;;;31.42;17.85;;;;;;;;;;5019261;28;20092;-65
2022/04/26 18:21:19;;;;;;;29.15;17.80;;;;;;;;;;5010306;28;20009;-65
2022/04/26 18:23:45;;;;;;;35.10;18.35;;;;;;;;;;5015655;28;20092;-65
2022/04/26 18:26:10;;;;;;;29.70;18.63;;;;;;;;;;5018424;28;20025;-64
2022/04/26 18:28:36;;;;;;;30.23;18.77;;;;;;;;;;5012421;28;20014;-64
2022/04/26 18:31:01;;;;;;;29.58;18.52;;;;;;;;;;5021599;28;20592;-65
2022/04/26 18:33:26;;;;;;;30.38;17.45;;;;;;;;;;5022716;28;20023;-64
2022/04/26 18:35:51;;;;;;;31.88;18.67;;;;;;;;;;5014460;28;20013;-65
2022/04/26 18:38:17;;;;;;;30.03;17.10;;;;;;;;;;5013550;28;20036;-65
2022/04/26 18:40:42;;;;;;;29.92;18.13;;;;;;;;;;5008293;28;20714;-65
2022/04/26 18:43:08;;;;;;;35.75;20.92;;;;;;;;;;5014998;28;20021;-65